createdAt,value
2022-12-18T00:03:09.625Z,-8.64
2022-12-18T00:08:11.286Z,-8.68
2022-12-18T00:13:13.259Z,-8.79
2022-12-18T00:18:18.930Z,-8.75
2022-12-18T00:23:21.910Z,-8.78
2022-12-18T00:28:23.227Z,-8.87
2022-12-18T00:33:24.545Z,-8.89
2022-12-18T00:38:25.852Z,-8.88
2022-12-18T00:43:27.246Z,-8.93
2022-12-18T00:48:28.542Z,-8.90
2022-12-18T00:53:29.841Z,-8.92
2022-12-18T00:58:31.138Z,-8.99
2022-12-18T01:03:32.479Z,-9.12
2022-12-18T01:08:34.028Z,-9.10
2022-12-18T01:13:35.586Z,-9.17
2022-12-18T01:18:37.118Z,-9.33
2022-12-18T01:23:39.179Z,-9.22
2022-12-18T01:28:41.275Z,-9.18
2022-12-18T01:33:42.971Z,-9.17
2022-12-18T01:38:44.501Z,-9.16
2022-12-18T01:43:50.873Z,-9.18
2022-12-18T01:48:54.815Z,-9.29
2022-12-18T01:53:56.295Z,-9.28
2022-12-18T01:59:02.367Z,-9.25
2022-12-18T02:04:20.650Z,-9.38
2022-12-18T02:09:25.228Z,-9.33
2022-12-18T02:14:39.222Z,-9.31
2022-12-18T02:19:52.684Z,-9.31
2022-12-18T02:24:53.970Z,-9.20
2022-12-18T02:29:58.842Z,-9.22
2022-12-18T02:35:01.504Z,-9.30
2022-12-18T02:40:04.447Z,-9.29
2022-12-18T02:45:06.278Z,-9.25
2022-12-18T02:50:26.267Z,-9.41
2022-12-18T02:55:46.099Z,-9.36
2022-12-18T03:00:56.574Z,-9.47
2022-12-18T03:06:01.212Z,-9.45
2022-12-18T03:11:03.989Z,-9.43
2022-12-18T03:16:07.463Z,-9.46
2022-12-18T03:21:10.769Z,-9.35
2022-12-18T03:26:13.575Z,-9.41
2022-12-18T03:31:15.176Z,-9.49
2022-12-18T03:36:16.664Z,-9.50
2022-12-18T03:41:17.984Z,-9.73
2022-12-18T03:46:39.569Z,-9.68
2022-12-18T03:51:40.873Z,-9.62
2022-12-18T03:56:48.930Z,-9.60
2022-12-18T04:01:53.360Z,-9.62
2022-12-18T04:06:55.776Z,-9.62
2022-12-18T04:11:57.125Z,-9.65
2022-12-18T04:16:58.496Z,-9.55
2022-12-18T04:21:59.805Z,-9.57
2022-12-18T04:27:01.124Z,-9.49
2022-12-18T04:32:02.471Z,-9.49
2022-12-18T04:37:04.271Z,-9.57
2022-12-18T04:42:05.609Z,-9.60
2022-12-18T04:47:06.985Z,-9.62
2022-12-18T04:52:08.329Z,-9.66
2022-12-18T04:57:09.665Z,-9.64
2022-12-18T05:02:11.124Z,-9.66
2022-12-18T05:07:12.609Z,-9.69
2022-12-18T05:12:13.933Z,-9.75
2022-12-18T05:17:15.277Z,-9.69
2022-12-18T05:22:16.742Z,-9.69
2022-12-18T05:27:20.252Z,-9.70
2022-12-18T05:32:21.602Z,-9.39
2022-12-18T05:37:22.907Z,-9.25
2022-12-18T05:42:24.237Z,-9.16
2022-12-18T05:47:25.550Z,-9.45
2022-12-18T05:52:26.901Z,-9.65
2022-12-18T05:57:28.345Z,-9.77
2022-12-18T06:02:29.784Z,-9.78
2022-12-18T06:07:31.169Z,-9.89
2022-12-18T06:12:34.397Z,-9.88
2022-12-18T06:17:36.152Z,-9.86
2022-12-18T06:22:37.479Z,-9.73
2022-12-18T06:27:38.842Z,-9.82
2022-12-18T06:32:40.157Z,-9.81
2022-12-18T06:37:41.702Z,-9.81
2022-12-18T06:42:43.010Z,-9.86
2022-12-18T06:47:44.349Z,-9.87
2022-12-18T06:52:45.674Z,-9.89
2022-12-18T06:57:47.134Z,-9.88
2022-12-18T07:02:48.536Z,-9.81
2022-12-18T07:07:49.948Z,-9.75
2022-12-18T07:12:51.255Z,-9.65
2022-12-18T07:17:52.572Z,-9.56
2022-12-18T07:22:56.374Z,-9.44
2022-12-18T07:27:57.869Z,-9.41
2022-12-18T07:32:59.730Z,-9.40
2022-12-18T07:38:01.232Z,-9.41
2022-12-18T07:43:02.674Z,-9.38
2022-12-18T07:48:04.243Z,-9.46
2022-12-18T07:53:05.968Z,-9.46
2022-12-18T07:58:07.302Z,-9.40
2022-12-18T08:03:08.702Z,-9.43
2022-12-18T08:08:11.047Z,-9.42
2022-12-18T08:13:12.365Z,-9.44
2022-12-18T08:18:14.548Z,-9.38
2022-12-18T08:23:16.069Z,-9.23
2022-12-18T08:28:17.403Z,-8.93
2022-12-18T08:33:18.956Z,-8.78
2022-12-18T08:38:20.283Z,-8.60
2022-12-18T08:43:40.400Z,-8.42
2022-12-18T08:48:42.138Z,-8.38
2022-12-18T08:53:43.973Z,-8.23
2022-12-18T08:58:45.460Z,-7.84
2022-12-18T09:03:46.778Z,-7.84
2022-12-18T09:08:48.243Z,-7.48
2022-12-18T09:13:49.768Z,-7.16
2022-12-18T09:18:51.099Z,-6.93
2022-12-18T09:23:52.976Z,-6.50
2022-12-18T09:28:54.359Z,-6.39
2022-12-18T09:33:56.203Z,-5.81
2022-12-18T09:38:57.520Z,-6.06
2022-12-18T09:44:01.632Z,-5.59
2022-12-18T09:49:06.003Z,-5.86
2022-12-18T09:54:22.978Z,-5.96
2022-12-18T09:59:37.964Z,-5.81
2022-12-18T10:04:39.372Z,-5.92
2022-12-18T10:10:00.981Z,-5.78
2022-12-18T10:15:08.095Z,-5.61
2022-12-18T10:20:25.666Z,-5.10
2022-12-18T10:25:35.576Z,-4.36
2022-12-18T10:30:36.877Z,-3.87
2022-12-18T10:35:41.936Z,-3.03
2022-12-18T10:40:51.136Z,-3.47
2022-12-18T10:46:03.002Z,-3.30
2022-12-18T10:51:12.831Z,-3.32
2022-12-18T10:56:20.629Z,-3.75
2022-12-18T11:01:22.088Z,-3.90
2022-12-18T11:06:25.459Z,-3.70
2022-12-18T11:11:27.134Z,-3.14
2022-12-18T11:16:29.121Z,-2.81
2022-12-18T11:21:30.512Z,-2.96
2022-12-18T11:26:35.452Z,-3.23
2022-12-18T11:31:36.929Z,-3.52
2022-12-18T11:36:46.187Z,-3.52
2022-12-18T11:42:19.927Z,-3.57
2022-12-18T11:47:30.688Z,-3.75
2022-12-18T11:52:35.107Z,-4.02
2022-12-18T11:57:55.088Z,-4.11
2022-12-18T12:03:02.684Z,-3.93
2022-12-18T12:08:06.886Z,-3.86
2022-12-18T12:13:11.646Z,-4.02
2022-12-18T12:18:30.959Z,-3.78
2022-12-18T12:23:51.245Z,-3.77
2022-12-18T12:29:10.437Z,-3.83
2022-12-18T12:34:14.836Z,-3.84
2022-12-18T12:39:18.984Z,-3.93
2022-12-18T12:44:24.105Z,-3.95
2022-12-18T12:49:28.804Z,-3.81
2022-12-18T12:54:32.763Z,-3.77
2022-12-18T12:59:43.132Z,-3.78
2022-12-18T13:04:57.873Z,-3.75
2022-12-18T13:10:11.789Z,-3.68
2022-12-18T13:15:44.265Z,-3.74
2022-12-18T13:20:55.361Z,-3.76
2022-12-18T13:26:07.265Z,-3.75
2022-12-18T13:31:08.669Z,-3.73
2022-12-18T13:36:16.191Z,-3.84
2022-12-18T13:41:21.458Z,-3.93
2022-12-18T13:46:30.029Z,-3.88
2022-12-18T13:51:32.718Z,-3.96
2022-12-18T13:56:35.156Z,-3.99
2022-12-18T14:01:36.924Z,-3.88
2022-12-18T14:06:38.594Z,-3.91
2022-12-18T14:11:39.935Z,-3.87
2022-12-18T14:16:42.087Z,-3.99
2022-12-18T14:21:49.028Z,-3.91
2022-12-18T14:26:50.969Z,-3.96
2022-12-18T14:32:17.516Z,-3.96
2022-12-18T14:37:22.253Z,-4.00
2022-12-18T14:42:23.596Z,-4.02
2022-12-18T14:47:24.950Z,-4.07
2022-12-18T14:52:28.960Z,-4.11
2022-12-18T14:57:36.167Z,-4.12
2022-12-18T15:02:37.794Z,-4.17
2022-12-18T15:07:46.435Z,-4.19
2022-12-18T15:12:49.330Z,-4.15
2022-12-18T15:17:57.176Z,-4.15
2022-12-18T15:22:58.531Z,-4.12
2022-12-18T15:27:59.880Z,-4.12
2022-12-18T15:33:20.023Z,-4.12
2022-12-18T15:38:21.359Z,-4.10
2022-12-18T15:43:36.108Z,-4.12
2022-12-18T15:48:41.083Z,-4.11
2022-12-18T15:53:43.304Z,-4.06
2022-12-18T15:58:45.024Z,-4.08
2022-12-18T16:03:46.607Z,-4.08
2022-12-18T16:08:48.356Z,-4.10
2022-12-18T16:13:49.669Z,-4.14
2022-12-18T16:18:52.863Z,-4.18
2022-12-18T16:23:54.378Z,-4.22
2022-12-18T16:28:56.314Z,-4.21
2022-12-18T16:34:16.393Z,-4.20
2022-12-18T16:39:19.650Z,-4.23
2022-12-18T16:44:21.269Z,-4.23
2022-12-18T16:49:22.674Z,-4.22
2022-12-18T16:54:24.129Z,-4.22
2022-12-18T16:59:26.813Z,-4.22
2022-12-18T17:04:28.318Z,-4.25
2022-12-18T17:09:29.674Z,-4.25
2022-12-18T17:14:32.019Z,-4.26
2022-12-18T17:19:33.438Z,-4.25
2022-12-18T17:24:35.571Z,-4.27
2022-12-18T17:29:39.120Z,-4.25
2022-12-18T17:34:45.150Z,-4.25
2022-12-18T17:39:46.463Z,-4.25
2022-12-18T17:44:47.792Z,-4.25
2022-12-18T17:49:49.098Z,-4.22
2022-12-18T17:54:50.462Z,-4.24
2022-12-18T17:59:51.782Z,-4.24
2022-12-18T18:04:53.114Z,-4.22
2022-12-18T18:09:54.465Z,-4.22
2022-12-18T18:14:55.810Z,-4.21
2022-12-18T18:19:57.157Z,-4.21
2022-12-18T18:24:58.453Z,-4.20
2022-12-18T18:29:59.798Z,-4.18
2022-12-18T18:35:01.142Z,-4.18
2022-12-18T18:40:03.484Z,-4.14
2022-12-18T18:45:04.977Z,-4.10
2022-12-18T18:50:06.668Z,-4.04
2022-12-18T18:55:25.277Z,-4.04
2022-12-18T19:00:27.489Z,-3.99
2022-12-18T19:05:31.183Z,-3.95
2022-12-18T19:10:32.583Z,-3.93
2022-12-18T19:15:34.205Z,-3.89
2022-12-18T19:20:35.714Z,-3.88
2022-12-18T19:25:41.662Z,-3.86
2022-12-18T19:30:43.759Z,-3.80
2022-12-18T19:35:45.195Z,-3.74
2022-12-18T19:40:46.884Z,-3.72
2022-12-18T19:45:54.139Z,-3.68
2022-12-18T19:50:55.917Z,-3.62
2022-12-18T19:55:57.367Z,-3.60
2022-12-18T20:00:58.745Z,-3.57
2022-12-18T20:06:19.474Z,-3.52
2022-12-18T20:11:21.065Z,-3.45
2022-12-18T20:16:22.640Z,-3.45
2022-12-18T20:21:25.178Z,-3.43
2022-12-18T20:26:26.842Z,-3.40
2022-12-18T20:31:28.259Z,-3.28
2022-12-18T20:36:30.767Z,-3.26
2022-12-18T20:41:37.641Z,-3.23
2022-12-18T20:46:40.261Z,-3.17
2022-12-18T20:51:41.710Z,-3.11
2022-12-18T20:56:43.102Z,-3.10
2022-12-18T21:01:48.013Z,-3.05
2022-12-18T21:07:00.753Z,-3.01
2022-12-18T21:12:22.036Z,-2.99
2022-12-18T21:17:23.776Z,-2.91
2022-12-18T21:22:28.266Z,-2.88
2022-12-18T21:27:29.642Z,-2.85
2022-12-18T21:32:33.439Z,-2.85
2022-12-18T21:37:35.063Z,-2.82
2022-12-18T21:42:55.078Z,-2.76
2022-12-18T21:47:56.401Z,-2.75
2022-12-18T21:52:57.722Z,-2.68
2022-12-18T21:57:59.036Z,-2.61
2022-12-18T22:03:17.150Z,-2.63
2022-12-18T22:08:19.410Z,-2.55
2022-12-18T22:13:20.854Z,-2.53
2022-12-18T22:18:22.789Z,-2.54
2022-12-18T22:23:24.182Z,-2.50
2022-12-18T22:28:44.323Z,-2.48
2022-12-18T22:33:45.663Z,-2.44
2022-12-18T22:38:47.884Z,-2.38
2022-12-18T22:43:49.184Z,-2.39
2022-12-18T22:48:50.520Z,-2.33
2022-12-18T22:53:51.863Z,-2.31
2022-12-18T22:58:53.267Z,-2.27
2022-12-18T23:03:55.053Z,-2.25
2022-12-18T23:08:57.523Z,-2.23
2022-12-18T23:13:58.830Z,-2.22
2022-12-18T23:19:00.442Z,-2.18
2022-12-18T23:24:01.751Z,-2.16
2022-12-18T23:29:03.741Z,-2.12
2022-12-18T23:34:05.728Z,-2.14
2022-12-18T23:39:07.054Z,-2.14
2022-12-18T23:44:09.979Z,-2.14
2022-12-18T23:49:11.291Z,-2.14
2022-12-18T23:54:12.650Z,-2.15
2022-12-18T23:59:14.356Z,-2.16
